O'Brien, Texas
Current Conditions -  °F | °C
As of 10:58 PM on Sunday 21 Dec 2014 (Local Time) from KDYS Reporting Station
Clear Clear  
Wind Chill: 52°   Ceiling: Unl
Heat Index: 52°   Visibility: 10mi
Dew Point: 42°   Wind: 24mph
Humidity: 69%   Direction: 230°SW
Pressure: 29.66"   Gusts: 36mph
Location:  33.38°N, 99.84°W
Report Text: KDYS 220458Z AUTO 23021G31KT 10SM CLR 11/06 A2966 RMK AO2 PK WND 22031/52 SLP030 T01100055 $
Loading
Personal Weather Stations






























Interactive Weather Map New forecast layout! Learn more

10-Day Weather Forecast

Advertisements
Track Severe Weather on mobile